createdAt,value
2022-11-30T00:09:58.239Z,63.42
2022-11-30T00:24:58.821Z,63.53
2022-11-30T00:39:58.599Z,64.04
2022-11-30T00:55:03.738Z,63.84
2022-11-30T01:10:05.000Z,63.63
2022-11-30T01:25:05.727Z,65.29
2022-11-30T01:40:05.903Z,67.16
2022-11-30T01:55:07.736Z,66.85
2022-11-30T02:10:09.224Z,66.85
2022-11-30T02:25:11.006Z,67.19
2022-11-30T02:40:11.362Z,67.06
2022-11-30T02:55:11.671Z,67.50
2022-11-30T03:10:11.922Z,67.92
2022-11-30T03:25:13.501Z,66.78
2022-11-30T03:40:14.072Z,67.19
2022-11-30T03:55:14.735Z,67.50
2022-11-30T04:10:16.244Z,68.02
2022-11-30T04:25:16.479Z,68.65
2022-11-30T04:40:16.664Z,69.27
2022-11-30T04:55:17.222Z,69.68
2022-11-30T05:10:19.047Z,70.72
2022-11-30T05:25:21.083Z,71.14
2022-11-30T05:40:21.612Z,71.28
2022-11-30T05:55:22.246Z,71.55
2022-11-30T06:10:22.893Z,72.59
2022-11-30T06:25:24.006Z,71.14
2022-11-30T06:40:25.135Z,71.14
2022-11-30T06:55:25.038Z,70.97
2022-11-30T07:10:25.317Z,71.59
2022-11-30T07:25:25.723Z,71.97
2022-11-30T07:40:26.603Z,74.57
2022-11-30T07:55:27.077Z,73.74
2022-11-30T08:10:27.658Z,75.67
2022-11-30T08:25:28.286Z,78.30
2022-11-30T08:40:29.411Z,78.27
2022-11-30T08:55:29.544Z,83.94
2022-11-30T09:10:30.260Z,87.47
2022-11-30T09:25:30.892Z,88.26
2022-11-30T09:40:35.532Z,91.85
2022-11-30T09:55:36.532Z,91.08
2022-11-30T10:10:37.650Z,93.93
2022-11-30T10:25:38.363Z,97.14
2022-11-30T10:40:39.206Z,99.58
2022-11-30T10:55:40.131Z,99.99
2022-11-30T11:10:40.939Z,99.99
2022-11-30T11:25:41.029Z,99.99
2022-11-30T11:40:41.113Z,99.99
2022-11-30T11:55:41.741Z,99.99
2022-11-30T12:10:51.644Z,99.99
2022-11-30T12:25:48.522Z,99.99
2022-11-30T12:40:48.767Z,99.99
2022-11-30T12:55:49.125Z,99.99
2022-11-30T13:10:49.174Z,99.99
2022-11-30T13:40:54.993Z,99.99
2022-11-30T13:55:55.045Z,99.99
2022-11-30T14:10:55.180Z,97.13
2022-11-30T14:25:56.055Z,95.72
2022-11-30T14:40:56.754Z,94.36
2022-11-30T14:55:56.804Z,92.94
2022-11-30T15:10:57.383Z,89.15
2022-11-30T15:25:58.249Z,84.09
2022-11-30T15:41:02.987Z,83.44
2022-11-30T15:56:04.325Z,80.19
2022-11-30T16:11:07.805Z,76.57
2022-11-30T16:26:18.296Z,72.96
2022-11-30T16:41:14.465Z,71.75
2022-11-30T16:56:14.942Z,69.24
2022-11-30T17:11:16.837Z,66.35
2022-11-30T17:26:17.356Z,64.16
2022-11-30T17:41:19.637Z,61.13
2022-11-30T17:56:20.684Z,59.26
2022-11-30T18:11:22.268Z,57.20
2022-11-30T18:26:22.812Z,55.29
2022-11-30T18:41:23.475Z,53.94
2022-11-30T18:56:23.703Z,52.16
2022-11-30T19:11:24.748Z,52.08
2022-11-30T19:26:25.331Z,51.56
2022-11-30T19:41:26.243Z,53.00
2022-11-30T19:56:27.017Z,54.25
2022-11-30T20:11:27.315Z,55.08
2022-11-30T20:26:27.972Z,55.19
2022-11-30T20:41:28.038Z,55.71
2022-11-30T20:56:28.328Z,55.40
2022-11-30T21:11:28.562Z,56.02
2022-11-30T21:26:28.501Z,56.86
2022-11-30T21:41:29.156Z,58.42
2022-11-30T21:56:29.784Z,57.90
2022-11-30T22:11:30.389Z,56.26
2022-11-30T22:26:30.489Z,55.53
2022-11-30T22:41:31.101Z,55.29
2022-11-30T22:56:30.815Z,58.34
2022-11-30T23:11:31.301Z,56.81
2022-11-30T23:26:31.672Z,54.51
2022-11-30T23:41:32.314Z,52.73
2022-11-30T23:56:34.676Z,51.59
